Tangail, Bangladesh
Current Conditions -  °F | °C
As of 12:20 AM on Friday 31 Oct 2014 (Local Time) from VGHS Reporting Station
Haze Haze  
Wind Chill: 73°   Ceiling: Unl
Heat Index: 73°   Visibility: 2.5mi
Dew Point: 64°   Wind: 5mph
Humidity: 73%   Direction: 290°WNW
Pressure: 29.83"   Gusts: NA
Location:  24.25°N, 89.92°E
Report Text: VGHS 301820Z 29004KT 4000 HZ NSC 23/18 Q1010 NOSIG
Loading
Personal Weather Stations






























Interactive Weather Map
Tropical Storm Tracking
New forecast layout! Learn more

10-Day Weather Forecast

Advertisements
Track Severe Weather on mobile